Time;durP1;ratioP1;P1;durP2;ratioP2;P2;SDS_P1;SDS_P2;PMS_P1;PMS_P2;Temp;Humidity;BMP_temperature;BMP_pressure;BME280_temperature;BME280_humidity;BME280_pressure;Samples;Min_cycle;Max_cycle;Signal;HPM_P1;HPM_P2
2024/04/16 00:02:19;;;;;;;11.77;5.45;;;;;;;10.44;96.66;95798.28;7396746;19;20013;-57
2024/04/16 00:04:44;;;;;;;7.95;5.35;;;;;;;10.13;98.91;95798.03;7395275;19;20351;-56
2024/04/16 00:07:10;;;;;;;8.93;5.18;;;;;;;10.08;98.94;95787.81;7396166;19;20002;-60
2024/04/16 00:09:35;;;;;;;8.70;5.57;;;;;;;10.41;96.23;95788.84;7396446;19;20002;-54
2024/04/16 00:12:01;;;;;;;9.18;5.03;;;;;;;10.36;96.07;95785.63;7395999;19;20003;-55
2024/04/16 00:14:27;;;;;;;5.43;4.90;;;;;;;10.29;96.92;95785.06;7396262;19;20038;-58
2024/04/16 00:16:52;;;;;;;5.85;5.25;;;;;;;10.44;95.06;95782.59;7394542;19;20006;-59
2024/04/16 00:19:18;;;;;;;8.32;5.65;;;;;;;10.22;96.05;95775.84;7395759;19;20002;-58
2024/04/16 00:21:43;;;;;;;8.20;5.40;;;;;;;10.38;94.73;95773.31;7395846;19;20014;-53
2024/04/16 00:24:09;;;;;;;8.68;5.63;;;;;;;10.63;92.15;95768.66;7395641;19;19995;-54
2024/04/16 00:26:35;;;;;;;7.43;5.63;;;;;;;10.39;94.00;95763.72;7395667;19;20018;-57
2024/04/16 00:29:00;;;;;;;11.48;6.28;;;;;;;10.19;96.33;95766.38;7395251;19;20441;-55
2024/04/16 00:31:26;;;;;;;6.93;5.07;;;;;;;10.17;96.37;95763.00;7395812;19;20003;-57
2024/04/16 00:33:52;;;;;;;5.47;4.97;;;;;;;10.00;98.52;95761.22;7395719;19;20463;-56
2024/04/16 00:36:17;;;;;;;7.65;5.32;;;;;;;10.06;97.49;95754.84;7394239;19;20394;-59
2024/04/16 00:38:43;;;;;;;5.97;5.05;;;;;;;10.12;96.98;95762.38;7395275;19;20003;-59
2024/04/16 00:41:08;;;;;;;7.70;6.00;;;;;;;10.34;96.12;95772.63;7395124;19;19999;-57
2024/04/16 00:43:34;;;;;;;8.57;5.88;;;;;;;10.03;98.39;95761.06;7394998;19;20009;-55
2024/04/16 00:46:00;;;;;;;8.75;4.85;;;;;;;9.89;98.54;95764.31;7395049;19;19994;-59
2024/04/16 00:48:28;;;;;;;7.38;5.97;;;;;;;10.02;98.82;95764.56;7395327;19;20005;-56
2024/04/16 00:50:57;;;;;;;10.07;5.88;;;;;;;9.85;100.00;95758.38;7394873;19;19999;-62
2024/04/16 00:53:24;;;;;;;12.48;6.30;;;;;;;9.85;100.00;95755.78;7395238;19;20021;-57
2024/04/16 00:55:51;;;;;;;8.23;6.10;;;;;;;9.91;100.00;95759.03;7394451;19;20002;-60
2024/04/16 00:58:18;;;;;;;6.78;5.40;;;;;;;10.01;100.00;95757.66;7395178;19;20058;-59
2024/04/16 01:00:44;;;;;;;8.27;5.25;;;;;;;9.56;100.00;95746.72;7394584;19;20058;-59
2024/04/16 01:03:10;;;;;;;7.70;5.97;;;;;;;9.65;100.00;95745.44;7394670;19;20015;-60
2024/04/16 01:05:36;;;;;;;7.72;5.88;;;;;;;9.77;100.00;95742.25;7394349;19;20012;-55
2024/04/16 01:08:02;;;;;;;11.23;5.72;;;;;;;9.73;100.00;95744.16;7402205;19;20081;-59
2024/04/16 01:10:29;;;;;;;9.07;5.97;;;;;;;9.79;100.00;95750.88;7402082;19;20007;-58
2024/04/16 01:12:55;;;;;;;6.03;5.28;;;;;;;9.48;100.00;95747.06;7402393;19;20359;-58
2024/04/16 01:15:21;;;;;;;7.43;5.68;;;;;;;9.57;100.00;95743.19;7401336;19;20003;-59
2024/04/16 01:17:48;;;;;;;13.10;5.97;;;;;;;9.66;100.00;95745.34;7402284;19;20025;-60
2024/04/16 01:20:14;;;;;;;6.38;5.78;;;;;;;9.69;100.00;95744.41;7401652;19;20002;-59
2024/04/16 01:22:40;;;;;;;7.90;5.70;;;;;;;9.38;100.00;95733.59;7401754;19;20014;-55
2024/04/16 01:25:06;;;;;;;8.20;5.85;;;;;;;9.41;100.00;95733.47;7402009;19;20009;-59
2024/04/16 01:27:32;;;;;;;8.38;5.47;;;;;;;9.53;100.00;95733.78;7401835;19;20022;-57
2024/04/16 01:29:57;;;;;;;8.85;5.95;;;;;;;9.40;100.00;95739.59;7401680;19;20335;-55
2024/04/16 01:32:23;;;;;;;9.27;5.60;;;;;;;9.46;100.00;95735.88;7401695;19;20362;-59
2024/04/16 01:34:48;;;;;;;7.85;5.93;;;;;;;9.50;100.00;95732.19;7401711;19;20465;-53
2024/04/16 01:37:14;;;;;;;9.93;5.97;;;;;;;9.52;100.00;95732.97;7398585;19;20485;-61
2024/04/16 01:39:39;;;;;;;7.80;6.10;;;;;;;9.61;100.00;95729.91;7401023;19;19999;-61
2024/04/16 01:42:05;;;;;;;7.78;5.82;;;;;;;9.69;100.00;95736.56;7401000;19;19995;-58
2024/04/16 01:44:31;;;;;;;6.50;5.03;;;;;;;9.37;100.00;95737.13;7400903;19;19999;-58
2024/04/16 01:46:57;;;;;;;7.10;5.88;;;;;;;9.42;100.00;95737.75;7400838;19;20033;-61
2024/04/16 01:49:23;;;;;;;8.20;5.70;;;;;;;9.48;100.00;95734.88;7400863;19;19998;-58
2024/04/16 01:51:48;;;;;;;10.05;5.65;;;;;;;9.57;100.00;95741.41;7401066;19;20006;-56
2024/04/16 01:54:14;;;;;;;7.05;5.93;;;;;;;9.61;100.00;95734.31;7400537;19;20461;-60
2024/04/16 01:56:39;;;;;;;8.57;5.60;;;;;;;9.70;100.00;95733.03;7398631;19;19995;-58
2024/04/16 01:59:05;;;;;;;9.93;6.45;;;;;;;9.59;100.00;95726.53;7400494;19;19998;-58
2024/04/16 02:01:31;;;;;;;8.27;6.28;;;;;;;9.15;100.00;95726.84;7400388;19;19995;-63
2024/04/16 02:03:56;;;;;;;10.68;5.97;;;;;;;9.22;100.00;95728.25;7400304;19;19999;-63
2024/04/16 02:06:22;;;;;;;8.95;5.78;;;;;;;9.35;100.00;95723.31;7400317;19;20404;-59
2024/04/16 02:08:48;;;;;;;6.05;5.32;;;;;;;9.50;100.00;95718.28;7400157;19;20003;-58
2024/04/16 02:11:14;;;;;;;8.85;5.95;;;;;;;9.61;100.00;95721.25;7400105;19;20062;-58
2024/04/16 02:13:40;;;;;;;7.85;5.70;;;;;;;9.51;100.00;95715.59;7399981;19;20003;-59
2024/04/16 02:16:05;;;;;;;9.73;6.25;;;;;;;9.21;100.00;95711.72;7398458;19;19999;-56
2024/04/16 02:18:31;;;;;;;7.50;6.00;;;;;;;9.07;100.00;95714.13;7399631;19;19997;-61
2024/04/16 02:20:57;;;;;;;9.20;6.53;;;;;;;9.21;100.00;95711.72;7399888;19;20457;-56
2024/04/16 02:23:22;;;;;;;8.43;5.70;;;;;;;9.34;100.00;95716.41;7399686;19;20011;-60
2024/04/16 02:25:49;;;;;;;7.53;5.50;;;;;;;9.23;100.00;95716.88;7399635;19;20989;-58
2024/04/16 02:28:15;;;;;;;9.25;5.82;;;;;;;9.30;100.00;95713.06;7399410;19;20002;-59
2024/04/16 02:30:41;;;;;;;6.75;6.15;;;;;;;9.32;100.00;95705.16;7399497;19;20041;-58
2024/04/16 02:33:13;;;;;;;9.48;5.88;;;;;;;9.06;100.00;95699.41;7399414;19;20002;-55
2024/04/16 02:35:39;;;;;;;7.45;5.45;;;;;;;9.25;100.00;95707.22;7398762;19;20469;-55
2024/04/16 02:38:04;;;;;;;8.38;6.15;;;;;;;9.34;100.00;95701.56;7399597;19;20038;-55
2024/04/16 02:40:30;;;;;;;8.10;5.93;;;;;;;9.25;100.00;95701.16;7399163;19;20013;-55
2024/04/16 02:42:55;;;;;;;6.03;5.43;;;;;;;9.00;100.00;95702.28;7399562;19;20006;-55
2024/04/16 02:45:22;;;;;;;8.48;5.70;;;;;;;8.76;100.00;95700.69;7399436;19;20420;-55
2024/04/16 02:47:48;;;;;;;7.53;5.28;;;;;;;8.98;100.00;95689.31;7398802;19;20017;-58
2024/04/16 02:50:13;;;;;;;7.95;6.22;;;;;;;9.04;100.00;95694.25;7398770;19;20091;-58
2024/04/16 02:52:39;;;;;;;7.05;6.35;;;;;;;9.07;100.00;95688.03;7398789;19;20105;-58
2024/04/16 02:55:07;;;;;;;7.60;6.13;;;;;;;9.11;100.00;95684.38;7398511;19;20066;-57
2024/04/16 02:57:34;;;;;;;6.75;5.95;;;;;;;9.00;100.00;95682.25;7398492;19;20006;-53
2024/04/16 03:00:01;;;;;;;6.97;6.15;;;;;;;8.98;100.00;95682.31;7398562;19;20002;-58
2024/04/16 03:02:26;;;;;;;8.60;5.95;;;;;;;8.88;100.00;95686.25;7398308;19;20065;-57
2024/04/16 03:04:52;;;;;;;8.48;6.38;;;;;;;8.90;100.00;95675.75;7397003;19;20020;-57
2024/04/16 03:07:17;;;;;;;8.30;6.00;;;;;;;8.74;100.00;95670.38;7398178;19;20006;-55
2024/04/16 03:09:43;;;;;;;6.85;5.70;;;;;;;8.77;100.00;95685.88;7398537;19;20006;-58
2024/04/16 03:12:08;;;;;;;7.75;6.03;;;;;;;8.89;100.00;95693.19;7397930;19;20464;-60
2024/04/16 03:14:34;;;;;;;6.13;5.60;;;;;;;8.55;100.00;95687.69;7398278;19;19998;-58
2024/04/16 03:16:59;;;;;;;13.88;7.18;;;;;;;8.69;100.00;95691.44;7396370;19;20337;-60
2024/04/16 03:19:25;;;;;;;14.05;6.80;;;;;;;8.90;100.00;95705.28;7397708;19;20002;-59
2024/04/16 03:21:51;;;;;;;8.88;6.90;;;;;;;9.27;100.00;95715.00;7398050;19;20003;-55
2024/04/16 03:24:16;;;;;;;9.85;7.00;;;;;;;9.85;100.00;95716.59;7397551;19;20008;-55
2024/04/16 03:26:42;;;;;;;8.52;6.35;;;;;;;9.53;100.00;95712.91;7397466;19;20006;-56
2024/04/16 03:29:08;;;;;;;9.85;7.35;;;;;;;9.44;100.00;95716.81;7395847;19;20062;-59
2024/04/16 03:31:33;;;;;;;10.57;6.40;;;;;;;9.46;100.00;95718.41;7397497;19;19986;-59
2024/04/16 03:33:59;;;;;;;10.63;6.55;;;;;;;9.52;100.00;95725.13;7397582;19;20002;-58
2024/04/16 03:36:24;;;;;;;11.07;6.25;;;;;;;9.23;100.00;95732.53;7396426;19;20350;-60
2024/04/16 03:38:50;;;;;;;12.13;6.70;;;;;;;9.11;100.00;95736.53;7397106;19;20465;-59
2024/04/16 03:41:16;;;;;;;9.30;7.03;;;;;;;9.16;100.00;95736.34;7397049;19;20082;-61
2024/04/16 03:43:42;;;;;;;9.15;6.40;;;;;;;9.16;100.00;95733.72;7396943;19;19999;-58
2024/04/16 03:46:08;;;;;;;7.95;5.60;;;;;;;9.28;100.00;95741.03;7396878;19;20006;-57
2024/04/16 03:48:33;;;;;;;10.88;6.30;;;;;;;9.35;100.00;95744.19;7396829;19;20002;-56
2024/04/16 03:50:59;;;;;;;7.65;6.00;;;;;;;9.44;100.00;95743.75;7396737;19;20003;-60
2024/04/16 03:53:25;;;;;;;8.45;5.82;;;;;;;9.49;100.00;95748.78;7396537;19;20002;-54
2024/04/16 03:55:50;;;;;;;13.45;6.47;;;;;;;9.16;100.00;95747.63;7396379;19;20002;-55
2024/04/16 03:58:16;;;;;;;8.00;6.32;;;;;;;9.28;100.00;95746.22;7396567;19;20339;-56
2024/04/16 04:01:00;;;;;;;10.07;6.63;;;;;;;9.37;100.00;95744.97;7396354;19;19995;-57
2024/04/16 04:03:26;;;;;;;12.75;6.45;;;;;;;9.47;100.00;95746.22;7396805;19;20338;-58
2024/04/16 04:05:52;;;;;;;13.55;6.90;;;;;;;9.75;100.00;95751.09;7394602;19;20476;-58
2024/04/16 04:08:18;;;;;;;9.27;6.38;;;;;;;9.71;100.00;95758.22;7396244;19;20003;-57
2024/04/16 04:10:44;;;;;;;10.13;6.93;;;;;;;9.91;100.00;95759.88;7396227;19;20071;-57
2024/04/16 04:13:10;;;;;;;16.67;6.75;;;;;;;10.06;100.00;95771.34;7396527;19;20007;-58
2024/04/16 04:15:36;;;;;;;11.18;6.20;;;;;;;10.01;100.00;95770.72;7395651;19;20477;-56
2024/04/16 04:18:02;;;;;;;10.55;6.22;;;;;;;9.91;100.00;95775.56;7395957;19;20022;-60
2024/04/16 04:20:27;;;;;;;13.13;6.45;;;;;;;10.08;100.00;95771.28;7395802;19;19998;-55
2024/04/16 04:22:53;;;;;;;9.55;7.20;;;;;;;9.97;100.00;95775.25;7396183;19;20016;-60
2024/04/16 04:25:19;;;;;;;13.82;6.60;;;;;;;10.15;100.00;95772.69;7395612;19;20481;-60
2024/04/16 04:27:44;;;;;;;9.77;6.43;;;;;;;10.54;100.00;95772.59;7395642;19;20006;-58
2024/04/16 04:30:11;;;;;;;10.73;6.40;;;;;;;10.76;100.00;95774.97;7395640;19;19999;-56
2024/04/16 04:32:36;;;;;;;9.98;6.38;;;;;;;10.88;100.00;95778.72;7395556;19;20342;-57
2024/04/16 04:35:03;;;;;;;9.02;6.15;;;;;;;11.14;100.00;95773.91;7395377;19;20003;-59
2024/04/16 04:37:28;;;;;;;25.05;7.10;;;;;;;11.32;100.00;95764.22;7393566;19;20003;-61
2024/04/16 04:39:54;;;;;;;17.63;6.75;;;;;;;11.66;100.00;95773.81;7395393;19;20016;-59
2024/04/16 04:42:20;;;;;;;16.02;6.13;;;;;;;11.95;98.22;95773.97;7395174;19;19998;-57
2024/04/16 04:44:46;;;;;;;11.70;6.55;;;;;;;12.36;95.08;95783.06;7395093;19;20006;-57
2024/04/16 04:47:12;;;;;;;25.10;7.35;;;;;;;12.53;93.86;95781.25;7395125;19;20007;-55
2024/04/16 04:49:39;;;;;;;23.25;13.05;;;;;;;12.58;93.28;95758.25;7394973;19;20369;-55
2024/04/16 04:52:04;;;;;;;40.63;20.77;;;;;;;12.51;95.89;95758.59;7394961;19;19999;-57
2024/04/16 04:54:30;;;;;;;36.30;16.67;;;;;;;12.67;97.21;95769.97;7395227;19;20032;-59
2024/04/16 04:56:56;;;;;;;16.83;7.75;;;;;;;12.64;99.66;95766.59;7393402;19;20346;-61
2024/04/16 04:59:22;;;;;;;21.85;6.75;;;;;;;12.94;98.11;95764.84;7395134;19;20080;-56
2024/04/16 05:01:47;;;;;;;17.58;7.13;;;;;;;13.51;88.43;95757.94;7394635;19;20520;-56
2024/04/16 05:04:13;;;;;;;20.25;7.97;;;;;;;13.71;93.08;95768.13;7394205;19;20002;-57
2024/04/16 05:06:39;;;;;;;27.58;6.80;;;;;;;13.85;93.42;95780.44;7394480;19;20011;-58
2024/04/16 05:09:05;;;;;;;20.30;6.43;;;;;;;14.20;89.76;95785.19;7394456;19;20005;-60
2024/04/16 05:11:32;;;;;;;14.13;5.18;;;;;;;14.03;89.60;95787.13;7394771;19;20322;-57
2024/04/16 05:13:57;;;;;;;9.30;4.85;;;;;;;14.37;87.39;95792.00;7394349;19;19991;-55
2024/04/16 05:16:23;;;;;;;11.18;5.32;;;;;;;14.40;80.43;95801.47;7393638;19;20002;-58
2024/04/16 05:18:49;;;;;;;17.38;5.20;;;;;;;14.55;78.31;95809.31;7394595;19;20082;-57
2024/04/16 05:21:15;;;;;;;12.98;5.63;;;;;;;14.38;88.14;95804.22;7394247;19;20024;-56
2024/04/16 05:23:40;;;;;;;10.07;4.97;;;;;;;14.23;89.73;95792.03;7394004;19;19999;-59
2024/04/16 05:26:06;;;;;;;11.50;4.93;;;;;;;13.95;90.59;95796.44;7394407;19;20013;-60
2024/04/16 05:28:35;;;;;;;10.10;5.82;;;;;;;14.16;90.81;95794.22;7394032;19;20461;-56
2024/04/16 05:31:00;;;;;;;13.48;4.97;;;;;;;14.22;87.25;95788.59;7393943;19;20016;-57
2024/04/16 05:33:26;;;;;;;10.75;5.70;;;;;;;14.56;92.04;95788.16;7393879;19;19999;-58
2024/04/16 05:35:52;;;;;;;11.60;5.43;;;;;;;14.20;92.32;95784.34;7393010;19;20327;-61
2024/04/16 05:38:19;;;;;;;10.35;5.25;;;;;;;14.80;85.04;95779.59;7392707;19;20394;-60
2024/04/16 05:40:44;;;;;;;7.60;4.85;;;;;;;14.01;90.64;95761.88;7393617;19;20003;-60
2024/04/16 05:43:10;;;;;;;15.50;5.68;;;;;;;14.20;90.49;95761.53;7393951;19;20015;-62
2024/04/16 05:45:36;;;;;;;10.35;6.25;;;;;;;14.95;88.91;95750.53;7393458;19;20461;-62
2024/04/16 05:48:02;;;;;;;10.52;5.43;;;;;;;16.42;81.90;95752.53;7393796;19;20002;-60
2024/04/16 05:50:28;;;;;;;10.02;5.07;;;;;;;16.60;76.36;95744.19;7393333;19;20465;-60
2024/04/16 05:52:53;;;;;;;9.95;5.45;;;;;;;16.39;78.56;95749.28;7398916;19;20006;-57
2024/04/16 05:55:19;;;;;;;8.35;5.43;;;;;;;15.80;87.13;95743.78;7400466;19;20468;-59
2024/04/16 05:57:45;;;;;;;8.40;5.22;;;;;;;15.28;86.26;95734.22;7400558;19;20002;-54
2024/04/16 06:00:12;;;;;;;10.88;5.85;;;;;;;15.73;84.64;95743.38;7400881;19;20003;-60
2024/04/16 06:02:37;;;;;;;7.35;5.78;;;;;;;15.86;84.65;95740.69;7400276;19;20005;-57
2024/04/16 06:05:04;;;;;;;11.77;5.25;;;;;;;16.35;82.53;95746.03;7398542;19;20010;-59
2024/04/16 06:07:30;;;;;;;7.60;5.28;;;;;;;16.71;78.79;95740.75;7400563;19;20011;-57
2024/04/16 06:09:55;;;;;;;15.20;6.15;;;;;;;16.13;80.13;95739.69;7400130;19;20501;-62
2024/04/16 06:12:21;;;;;;;19.27;6.30;;;;;;;16.53;79.08;95741.16;7400215;19;20002;-58
2024/04/16 06:14:46;;;;;;;13.93;5.70;;;;;;;16.17;81.64;95745.59;7399978;19;20003;-57
2024/04/16 06:17:12;;;;;;;19.52;6.38;;;;;;;15.88;83.59;95743.22;7397818;19;19998;-60
2024/04/16 06:19:37;;;;;;;21.50;6.20;;;;;;;16.14;83.47;95753.72;7399798;19;20040;-52
2024/04/16 06:22:03;;;;;;;15.57;5.90;;;;;;;16.04;84.44;95756.16;7399784;19;20015;-53
2024/04/16 06:24:29;;;;;;;20.40;5.90;;;;;;;16.06;84.34;95767.47;7399581;19;20011;-56
2024/04/16 06:26:54;;;;;;;17.05;6.53;;;;;;;16.09;81.20;95767.25;7399609;19;19995;-53
2024/04/16 06:29:21;;;;;;;26.08;7.38;;;;;;;16.24;83.14;95788.19;7399781;19;20001;-58
2024/04/16 06:31:46;;;;;;;19.08;5.47;;;;;;;16.32;82.25;95791.13;7399468;19;20046;-60
2024/04/16 06:34:12;;;;;;;11.73;5.95;;;;;;;16.21;78.66;95788.41;7399313;19;20011;-53
2024/04/16 06:36:38;;;;;;;15.60;5.35;;;;;;;17.27;71.57;95796.44;7397801;19;20002;-62
2024/04/16 06:39:03;;;;;;;12.23;4.45;;;;;;;17.11;66.82;95804.72;7397784;19;20062;-62
2024/04/16 06:41:29;;;;;;;10.05;4.72;;;;;;;18.77;65.25;95800.56;7399491;19;19995;-54
2024/04/16 06:43:54;;;;;;;17.70;4.63;;;;;;;20.00;56.63;95811.44;7399156;19;19991;-58
2024/04/16 06:46:20;;;;;;;9.55;4.43;;;;;;;20.84;56.37;95811.16;7398999;19;19991;-59
2024/04/16 06:48:45;;;;;;;11.00;3.95;;;;;;;20.63;53.32;95820.13;7399312;19;20017;-58
2024/04/16 06:51:11;;;;;;;11.98;4.60;;;;;;;20.83;55.92;95815.63;7398910;19;20465;-59
2024/04/16 06:53:37;;;;;;;7.07;3.80;;;;;;;20.53;58.20;95808.66;7398665;19;20011;-57
2024/04/16 06:56:06;;;;;;;7.25;4.10;;;;;;;20.68;55.77;95812.56;7397653;19;20019;-57
2024/04/16 06:58:32;;;;;;;8.13;3.70;;;;;;;21.67;51.45;95817.75;7398474;19;20477;-59
2024/04/16 07:00:58;;;;;;;7.00;3.75;;;;;;;23.37;46.56;95815.69;7398796;19;20006;-55
2024/04/16 07:03:24;;;;;;;8.63;3.55;;;;;;;23.14;47.00;95818.84;7396074;19;20414;-56
2024/04/16 07:05:50;;;;;;;7.30;3.53;;;;;;;24.01;45.71;95807.34;7396122;19;20007;-61
2024/04/16 07:08:18;;;;;;;6.60;3.70;;;;;;;24.50;40.75;95805.03;7398165;19;19998;-57
2024/04/16 07:10:47;;;;;;;6.43;3.40;;;;;;;24.42;40.73;95801.34;7398471;19;20341;-55
2024/04/16 07:13:14;;;;;;;8.65;3.65;;;;;;;23.41;44.22;95798.38;7398088;19;20015;-56
2024/04/16 07:15:40;;;;;;;7.25;3.10;;;;;;;24.53;42.23;95794.03;7397578;19;20002;-62
2024/04/16 07:18:06;;;;;;;5.53;3.40;;;;;;;24.51;42.13;95793.34;7397933;19;19994;-55
2024/04/16 07:20:32;;;;;;;6.15;3.33;;;;;;;24.40;38.83;95795.31;7398135;19;19999;-56
2024/04/16 07:22:57;;;;;;;8.05;2.80;;;;;;;23.40;40.05;95778.88;7398222;19;20009;-58
2024/04/16 07:25:23;;;;;;;10.73;3.58;;;;;;;24.10;37.77;95768.16;7397667;19;20025;-53
2024/04/16 07:27:49;;;;;;;9.38;3.42;;;;;;;24.74;39.02;95764.13;7397680;19;19999;-56
2024/04/16 07:30:15;;;;;;;5.82;3.40;;;;;;;24.80;37.65;95776.00;7397833;19;20003;-61
2024/04/16 07:32:41;;;;;;;5.40;3.50;;;;;;;25.16;37.86;95767.66;7397392;19;20013;-57
2024/04/16 07:35:07;;;;;;;9.57;3.60;;;;;;;23.83;42.91;95762.06;7397650;19;19999;-58
2024/04/16 07:37:32;;;;;;;13.77;3.80;;;;;;;23.76;45.29;95759.22;7395300;19;20354;-55
2024/04/16 07:39:58;;;;;;;7.15;3.72;;;;;;;24.93;43.79;95762.16;7397188;19;20006;-57
2024/04/16 07:42:23;;;;;;;9.35;3.88;;;;;;;26.00;41.03;95765.59;7397054;19;19999;-58
2024/04/16 07:44:49;;;;;;;8.25;3.35;;;;;;;25.18;41.26;95764.81;7397411;19;20070;-58
2024/04/16 07:47:15;;;;;;;5.93;3.33;;;;;;;25.90;41.22;95768.50;7395745;19;20006;-58
2024/04/16 07:49:40;;;;;;;8.48;3.38;;;;;;;25.52;42.04;95760.22;7396914;19;19995;-58
2024/04/16 07:52:06;;;;;;;10.82;3.60;;;;;;;25.21;42.17;95762.63;7397209;19;20007;-57
2024/04/16 07:54:32;;;;;;;10.10;3.60;;;;;;;25.02;41.67;95758.47;7396854;19;20010;-55
2024/04/16 07:56:57;;;;;;;9.35;3.55;;;;;;;24.98;41.99;95762.47;7395751;19;20362;-57
2024/04/16 07:59:23;;;;;;;9.88;3.75;;;;;;;24.67;42.91;95760.44;7396468;19;20692;-53
2024/04/16 08:01:48;;;;;;;7.00;3.70;;;;;;;24.99;41.86;95764.97;7396982;19;19994;-57
2024/04/16 08:04:14;;;;;;;8.45;3.22;;;;;;;24.85;42.18;95757.59;7395840;19;20469;-54
2024/04/16 08:06:40;;;;;;;8.25;3.60;;;;;;;24.40;43.53;95757.91;7396766;19;20015;-57
2024/04/16 08:09:05;;;;;;;16.40;4.63;;;;;;;23.95;44.37;95750.09;7396547;19;20586;-52
2024/04/16 08:11:31;;;;;;;6.72;3.33;;;;;;;24.13;43.35;95751.84;7396285;19;19999;-61
2024/04/16 08:13:57;;;;;;;7.85;3.67;;;;;;;25.11;41.90;95744.06;7396042;19;19998;-55
2024/04/16 08:16:22;;;;;;;8.77;3.35;;;;;;;25.91;39.73;95750.59;7394534;19;20006;-54
2024/04/16 08:18:48;;;;;;;8.60;3.78;;;;;;;25.72;40.26;95756.19;7396279;19;20006;-56
2024/04/16 08:21:14;;;;;;;7.63;3.35;;;;;;;25.88;40.16;95756.28;7395794;19;19999;-59
2024/04/16 08:23:40;;;;;;;6.65;3.17;;;;;;;26.45;39.07;95752.47;7395734;19;19998;-60
2024/04/16 08:26:06;;;;;;;10.18;4.07;;;;;;;26.01;40.04;95750.38;7395714;19;19998;-57
2024/04/16 08:28:32;;;;;;;10.50;3.80;;;;;;;26.13;40.73;95740.94;7395727;19;20013;-55
2024/04/16 08:30:58;;;;;;;13.35;3.97;;;;;;;26.41;40.82;95747.66;7395550;19;19998;-60
2024/04/16 08:33:24;;;;;;;4.75;4.05;;;;;;;27.40;39.99;95742.50;7395365;19;19995;-57
2024/04/16 08:35:50;;;;;;;5.53;4.25;;;;;;;26.38;40.89;95748.84;7394841;19;20018;-59
2024/04/16 08:38:17;;;;;;;11.30;4.28;;;;;;;26.39;41.34;95744.34;7395218;19;19998;-54
2024/04/16 08:40:45;;;;;;;7.63;3.75;;;;;;;26.52;41.47;95741.06;7395578;19;20003;-56
2024/04/16 08:43:11;;;;;;;12.02;4.70;;;;;;;26.47;41.55;95744.25;7395540;19;20355;-58
2024/04/16 08:45:38;;;;;;;12.43;5.20;;;;;;;25.92;41.20;95749.56;7395246;19;20006;-60
2024/04/16 08:48:05;;;;;;;11.13;4.50;;;;;;;25.70;41.29;95752.84;7395159;19;20005;-60
2024/04/16 08:50:33;;;;;;;7.55;4.57;;;;;;;25.92;40.09;95765.63;7395011;19;20005;-57
2024/04/16 08:53:00;;;;;;;10.90;4.13;;;;;;;25.57;39.88;95758.72;7394926;19;20066;-57
2024/04/16 08:55:29;;;;;;;11.80;4.10;;;;;;;25.21;40.87;95753.75;7394623;19;20011;-58
2024/04/16 08:57:55;;;;;;;8.23;3.53;;;;;;;25.79;41.35;95755.50;7394873;19;20498;-53
2024/04/16 09:00:21;;;;;;;15.93;3.95;;;;;;;25.92;41.22;95746.91;7394699;19;19999;-59
2024/04/16 09:02:49;;;;;;;7.50;4.10;;;;;;;26.01;39.54;95737.81;7394681;19;20006;-58
2024/04/16 09:05:16;;;;;;;8.52;4.20;;;;;;;25.71;40.21;95735.75;7393254;19;20077;-54
2024/04/16 09:07:41;;;;;;;16.50;4.10;;;;;;;26.54;38.19;95739.00;7394500;19;20027;-57
2024/04/16 09:10:16;;;;;;;10.35;3.88;;;;;;;26.16;36.86;95742.41;7394582;19;20062;-57
2024/04/16 09:12:47;;;;;;;12.20;4.05;;;;;;;26.32;37.97;95741.50;7394320;19;19999;-60
2024/04/16 09:15:14;;;;;;;10.05;3.97;;;;;;;26.37;39.79;95747.19;7394772;19;19998;-59
2024/04/16 09:17:50;;;;;;;7.00;3.90;;;;;;;26.26;39.95;95743.03;7392804;19;20023;-56
2024/04/16 09:20:24;;;;;;;11.55;4.00;;;;;;;25.83;40.26;95749.59;7394333;19;19995;-59
2024/04/16 09:22:52;;;;;;;7.07;4.07;;;;;;;25.83;40.67;95741.56;7394246;19;20012;-58
2024/04/16 09:25:18;;;;;;;11.30;3.92;;;;;;;25.72;39.78;95736.59;7394025;19;20367;-59
2024/04/16 09:27:52;;;;;;;8.43;3.80;;;;;;;25.41;39.96;95732.00;7399204;19;20349;-57
2024/04/16 09:30:18;;;;;;;9.68;4.43;;;;;;;24.65;40.67;95735.72;7401796;19;20002;-56
2024/04/16 09:32:55;;;;;;;8.63;4.00;;;;;;;24.54;41.02;95742.22;7401341;19;20339;-58
2024/04/16 09:35:31;;;;;;;6.18;4.05;;;;;;;24.57;43.39;95733.88;7401737;19;20356;-56
2024/04/16 09:38:01;;;;;;;7.68;4.00;;;;;;;25.18;40.76;95738.03;7401609;19;19999;-58
2024/04/16 09:40:29;;;;;;;8.85;4.30;;;;;;;24.58;41.25;95731.06;7401238;19;20005;-57
2024/04/16 09:42:56;;;;;;;7.93;3.95;;;;;;;23.99;43.22;95726.59;7401543;19;20006;-58
2024/04/16 09:45:21;;;;;;;9.98;4.20;;;;;;;23.86;41.15;95711.00;7401438;19;20043;-54
2024/04/16 09:47:49;;;;;;;8.57;4.20;;;;;;;23.09;44.78;95707.31;7401322;19;20552;-60
2024/04/16 09:50:18;;;;;;;9.38;4.45;;;;;;;24.38;44.26;95700.31;7400906;19;20082;-56
2024/04/16 09:52:44;;;;;;;9.68;3.92;;;;;;;24.70;43.13;95696.81;7401290;19;20016;-56
2024/04/16 09:55:10;;;;;;;7.05;3.70;;;;;;;24.68;41.51;95689.97;7401128;19;20388;-53
2024/04/16 09:57:38;;;;;;;8.48;4.00;;;;;;;24.35;43.97;95691.59;7398044;19;20002;-56
2024/04/16 10:00:05;;;;;;;10.98;4.20;;;;;;;25.15;41.81;95683.06;7400566;19;20073;-59
2024/04/16 10:02:32;;;;;;;14.13;4.57;;;;;;;25.24;39.11;95678.50;7400277;19;20006;-58
2024/04/16 10:05:00;;;;;;;8.88;4.82;;;;;;;25.25;41.20;95677.50;7398824;19;20002;-57
2024/04/16 10:07:26;;;;;;;9.27;4.00;;;;;;;26.33;38.69;95678.84;7400417;19;20011;-55
2024/04/16 10:09:51;;;;;;;15.73;4.65;;;;;;;26.69;36.48;95683.59;7400465;19;20037;-57
2024/04/16 10:12:17;;;;;;;5.60;4.00;;;;;;;26.19;38.72;95667.88;7400268;19;20027;-53
2024/04/16 10:14:43;;;;;;;9.20;4.10;;;;;;;27.16;38.31;95666.59;7400458;19;20019;-55
2024/04/16 10:17:13;;;;;;;9.00;4.20;;;;;;;27.15;37.27;95662.25;7398091;19;19998;-55
2024/04/16 10:19:38;;;;;;;12.98;4.43;;;;;;;27.29;37.07;95657.88;7399887;19;20006;-53
2024/04/16 10:22:13;;;;;;;8.10;3.92;;;;;;;26.75;36.88;95658.75;7400178;19;19991;-57
2024/04/16 10:24:39;;;;;;;8.40;4.30;;;;;;;26.84;37.65;95655.97;7399817;19;19999;-56
2024/04/16 10:27:09;;;;;;;10.82;4.40;;;;;;;26.54;36.59;95656.75;7399639;19;20031;-59
2024/04/16 10:29:37;;;;;;;9.02;4.55;;;;;;;26.88;38.17;95649.25;7399709;19;20477;-55
2024/04/16 10:32:04;;;;;;;14.80;4.53;;;;;;;27.37;36.16;95652.44;7399472;19;19999;-57
2024/04/16 10:34:30;;;;;;;11.18;4.57;;;;;;;26.37;35.23;95648.84;7399310;19;20002;-56
2024/04/16 10:36:56;;;;;;;13.60;4.82;;;;;;;25.56;37.44;95630.41;7397773;19;19995;-58
2024/04/16 10:39:31;;;;;;;13.25;4.80;;;;;;;25.17;39.79;95624.88;7399022;19;19998;-57
2024/04/16 10:42:01;;;;;;;11.00;4.32;;;;;;;25.05;38.71;95626.25;7399164;19;20005;-61
2024/04/16 10:44:28;;;;;;;9.82;4.45;;;;;;;25.32;38.18;95622.31;7399424;19;20008;-57
2024/04/16 10:46:54;;;;;;;8.95;4.05;;;;;;;25.57;37.73;95619.50;7399022;19;20062;-57
2024/04/16 10:49:22;;;;;;;10.18;4.90;;;;;;;26.60;36.53;95629.22;7397909;19;20062;-55
2024/04/16 10:51:50;;;;;;;9.90;4.40;;;;;;;26.56;37.15;95632.44;7398948;19;19998;-57
2024/04/16 10:54:16;;;;;;;9.27;3.78;;;;;;;25.44;37.13;95621.91;7398769;19;20476;-57
2024/04/16 10:56:42;;;;;;;8.18;4.07;;;;;;;25.70;36.13;95621.66;7397325;19;20007;-51
2024/04/16 10:59:09;;;;;;;10.88;4.32;;;;;;;25.81;37.27;95619.56;7398563;19;20601;-58
2024/04/16 11:01:42;;;;;;;12.85;5.15;;;;;;;25.74;37.99;95614.09;7398968;19;20010;-54
2024/04/16 11:04:12;;;;;;;11.32;4.40;;;;;;;25.85;35.23;95612.84;7397871;19;20493;-59
2024/04/16 11:06:38;;;;;;;10.68;4.15;;;;;;;25.99;36.97;95613.94;7398617;19;20007;-55
2024/04/16 11:09:04;;;;;;;22.35;4.72;;;;;;;25.24;36.01;95615.16;7398640;19;19999;-59
2024/04/16 11:11:32;;;;;;;9.77;4.80;;;;;;;25.33;36.71;95605.25;7398640;19;20010;-57
2024/04/16 11:13:58;;;;;;;13.50;4.82;;;;;;;24.36;37.13;95596.28;7398041;19;20476;-59
2024/04/16 11:16:24;;;;;;;13.40;4.50;;;;;;;25.46;37.56;95602.00;7397375;19;20010;-53
2024/04/16 11:18:51;;;;;;;12.65;4.35;;;;;;;25.99;35.99;95611.25;7397977;19;19994;-58
2024/04/16 11:21:18;;;;;;;12.32;4.75;;;;;;;25.78;35.43;95596.66;7397808;19;20002;-57
2024/04/16 11:23:44;;;;;;;16.83;5.20;;;;;;;26.28;36.14;95598.16;7397729;19;20001;-52
2024/04/16 11:26:10;;;;;;;15.90;4.82;;;;;;;25.92;34.43;95605.78;7397782;19;20405;-57